Weather at San Diego International Airport

Public forecast

Using degrees Fahrenheit for public forecast. Weather courtesy of forecast.io.

Current aviation weather report (METAR) for San Diego International Airport

2024/02/24 08:51 (retrieved 22 minutes ago)

KSAN 240851Z 00000KT 10SM BKN180 BKN250 15/11 A3004 RMK AO2 SLP171 T01500106 58007

Aviation forecast (TAF) for San Diego International Airport

2024/02/24 08:30 Ammendment (retrieved 43 minutes ago)

TAF AMD KSAN 240827Z 2408/2512 06003KT P6SM BKN200 BKN250 FM242100 29008KT P6SM BKN250 FM250200 VRB04KT P6SM SCT250